createdAt,value
2023-02-13T00:01:22.321Z,103000.88
2023-02-13T00:03:52.323Z,102999.09
2023-02-13T00:06:38.954Z,102999.97
2023-02-13T00:09:12.133Z,102997.09
2023-02-13T00:11:51.892Z,102994.34
2023-02-13T00:14:21.891Z,102994.59
2023-02-13T00:16:54.059Z,102989.25
2023-02-13T00:19:21.212Z,102987.56
2023-02-13T00:21:50.589Z,102992.94
2023-02-13T00:24:17.551Z,102982.34
2023-02-13T00:26:47.480Z,102988.44
2023-02-13T00:29:14.176Z,102980.34
2023-02-13T00:31:44.250Z,102981.06
2023-02-13T00:34:11.099Z,102983.84
2023-02-13T00:36:45.566Z,102988.09
2023-02-13T00:39:13.197Z,102984.81
2023-02-13T00:41:58.551Z,102979.44
2023-02-13T00:44:25.391Z,102982.13
2023-02-13T00:46:55.261Z,102984.91
2023-02-13T00:49:25.500Z,102986.72
2023-02-13T00:51:52.455Z,102978.88
2023-02-13T00:54:19.187Z,102993.19
2023-02-13T00:56:53.228Z,102985.22
2023-02-13T00:59:20.042Z,102984.34
2023-02-13T01:01:54.136Z,102979.19
2023-02-13T01:04:20.912Z,102988.03
2023-02-13T01:06:47.587Z,102979.16
2023-02-13T01:09:14.356Z,102982.84
2023-02-13T01:11:54.508Z,102989.91
2023-02-13T01:14:21.443Z,102973.03
2023-02-13T01:16:55.684Z,102974.03
2023-02-13T01:19:25.374Z,102974.09
2023-02-13T01:22:00.429Z,102975.09
2023-02-13T01:24:29.977Z,102979.66
2023-02-13T01:26:56.692Z,102978.66
2023-02-13T01:29:29.253Z,102982.22
2023-02-13T01:31:56.142Z,102979.53
2023-02-13T01:34:22.920Z,102978.66
2023-02-13T01:36:55.602Z,102972.53
2023-02-13T01:39:26.033Z,102975.25
2023-02-13T01:41:52.710Z,102972.53
2023-02-13T01:45:17.760Z,102971.56
2023-02-13T01:48:15.522Z,102980.41
2023-02-13T01:51:14.834Z,102972.44
2023-02-13T01:54:04.597Z,102970.72
2023-02-13T01:56:55.579Z,102968.84
2023-02-13T02:00:03.078Z,102969.69
2023-02-13T02:02:38.773Z,102966.97
2023-02-13T02:05:12.381Z,102962.53
2023-02-13T02:07:47.595Z,102965.16
2023-02-13T02:10:24.951Z,102967.03
2023-02-13T02:13:21.320Z,102958.97
2023-02-13T02:15:53.015Z,102960.91
2023-02-13T02:18:24.467Z,102960.09
2023-02-13T02:21:13.246Z,102953.06
2023-02-13T02:24:56.363Z,102954.88
2023-02-13T02:27:52.557Z,102947.81
2023-02-13T02:30:55.969Z,102951.34
2023-02-13T02:33:52.537Z,102948.72
2023-02-13T02:37:13.385Z,102952.41
2023-02-13T02:40:17.801Z,102948.78
2023-02-13T02:43:25.784Z,102954.13
2023-02-13T02:46:32.606Z,102946.19
2023-02-13T02:49:45.382Z,102943.53
2023-02-13T02:52:59.730Z,102952.34
2023-02-13T02:56:21.675Z,102947.72
2023-02-13T02:59:19.034Z,102955.75
2023-02-13T03:02:14.952Z,102949.59
2023-02-13T03:05:20.615Z,102942.50
2023-02-13T03:07:56.171Z,102951.41
2023-02-13T03:10:57.122Z,102951.41
2023-02-13T03:13:53.263Z,102940.69
2023-02-13T03:16:46.473Z,102928.31
2023-02-13T03:20:09.737Z,102935.41
2023-02-13T03:23:15.700Z,102940.84
2023-02-13T03:26:54.199Z,102932.91
2023-02-13T03:30:07.456Z,102931.34
2023-02-13T03:33:50.277Z,102936.69
2023-02-13T03:37:31.591Z,102939.28
2023-02-13T03:40:16.245Z,102950.00
2023-02-13T03:43:00.918Z,102941.97
2023-02-13T03:45:53.256Z,102946.50
2023-02-13T03:48:59.418Z,102950.00
2023-02-13T03:52:07.302Z,102955.25
2023-02-13T03:55:25.807Z,102950.00
2023-02-13T03:59:12.783Z,102949.13
2023-02-13T04:01:52.886Z,102950.41
2023-02-13T04:04:34.432Z,102959.19
2023-02-13T04:07:11.740Z,102943.31
2023-02-13T04:09:44.183Z,102953.22
2023-02-13T04:12:27.054Z,102959.44
2023-02-13T04:15:24.651Z,102950.66
2023-02-13T04:18:10.927Z,102954.13
2023-02-13T04:20:44.893Z,102953.25
2023-02-13T04:23:13.487Z,102952.34
2023-02-13T04:25:51.873Z,102951.34
2023-02-13T04:28:18.846Z,102951.44
2023-02-13T04:30:45.886Z,102955.13
2023-02-13T04:33:12.808Z,102952.72
2023-02-13T04:35:41.623Z,102955.38
2023-02-13T04:38:08.529Z,102963.50
2023-02-13T04:40:40.280Z,102957.28
2023-02-13T04:43:07.273Z,102957.34
2023-02-13T04:45:33.904Z,102945.88
2023-02-13T04:48:00.697Z,102954.72
2023-02-13T04:50:27.477Z,102955.47
2023-02-13T04:53:01.633Z,102943.91
2023-02-13T04:55:28.796Z,102943.97
2023-02-13T04:58:01.895Z,102942.19
2023-02-13T05:00:30.513Z,102951.94
2023-02-13T05:03:10.240Z,102945.78
2023-02-13T05:05:37.681Z,102951.03
2023-02-13T05:08:09.028Z,102951.13
2023-02-13T05:10:36.032Z,102948.44
2023-02-13T05:13:02.951Z,102947.63
2023-02-13T05:15:29.949Z,102948.66
2023-02-13T05:17:56.666Z,102960.06
2023-02-13T05:20:27.901Z,102938.84
2023-02-13T05:23:13.557Z,102942.47
2023-02-13T05:25:45.065Z,102953.19
2023-02-13T05:28:30.184Z,102951.44
2023-02-13T05:30:59.213Z,102955.09
2023-02-13T05:33:29.351Z,102952.44
2023-02-13T05:35:56.046Z,102946.25
2023-02-13T05:38:22.937Z,102951.63
2023-02-13T05:40:59.208Z,102953.38
2023-02-13T05:43:35.622Z,102953.25
2023-02-13T05:46:10.251Z,102961.31
2023-02-13T05:48:37.136Z,102953.47
2023-02-13T05:51:04.941Z,102967.81
2023-02-13T05:58:59.978Z,102961.50
2023-02-13T06:12:13.814Z,102966.75
2023-02-13T06:28:17.437Z,102978.09
2023-02-13T06:30:44.567Z,102978.09
2023-02-13T06:35:55.163Z,102985.22
2023-02-13T07:22:05.548Z,103009.41
2023-02-13T07:48:52.444Z,103028.38
2023-02-13T08:10:33.384Z,103039.25
2023-02-13T08:13:00.934Z,103038.38
2023-02-13T08:15:27.698Z,103029.41
2023-02-13T08:17:57.457Z,103039.13
2023-02-13T08:20:27.130Z,103035.38
2023-02-13T08:23:06.332Z,103034.44
2023-02-13T08:25:34.377Z,103039.84
2023-02-13T08:28:05.403Z,103033.50
2023-02-13T08:30:32.536Z,103038.72
2023-02-13T08:32:59.366Z,103031.56
2023-02-13T08:35:31.948Z,103037.88
2023-02-13T08:38:05.178Z,103033.94
2023-02-13T08:40:32.966Z,103039.09
2023-02-13T08:43:05.232Z,103039.00
2023-02-13T08:45:33.784Z,103041.56
2023-02-13T08:48:01.231Z,103041.44
2023-02-13T08:50:28.786Z,103044.88
2023-02-13T08:52:58.704Z,103044.88
2023-02-13T08:55:31.522Z,103052.59
2023-02-13T08:58:07.531Z,103051.53
2023-02-13T09:00:34.182Z,103038.91
2023-02-13T09:03:05.025Z,103050.47
2023-02-13T09:05:32.474Z,103047.81
2023-02-13T09:08:03.973Z,103050.63
2023-02-13T09:10:33.175Z,103043.19
2023-02-13T09:13:01.311Z,103042.28
2023-02-13T09:15:28.033Z,103040.63
2023-02-13T09:17:58.066Z,103045.56
2023-02-13T09:20:27.619Z,103050.72
2023-02-13T09:22:57.893Z,103041.16
2023-02-13T09:25:25.031Z,103044.44
2023-02-13T09:27:51.718Z,103036.19
2023-02-13T09:30:24.659Z,103038.72
2023-02-13T09:32:53.508Z,103042.13
2023-02-13T09:35:22.846Z,103043.06
2023-02-13T09:37:52.567Z,103044.72
2023-02-13T09:41:03.496Z,103036.19
2023-02-13T09:44:02.447Z,103043.38
2023-02-13T09:46:47.208Z,103049.13
2023-02-13T09:49:28.035Z,103037.44
2023-02-13T09:51:58.125Z,103031.38
2023-02-13T09:54:30.680Z,103033.63
2023-02-13T09:57:31.417Z,103034.44
2023-02-13T10:00:25.946Z,103032.31
2023-02-13T10:03:19.534Z,103038.50
2023-02-13T10:06:51.907Z,103029.44
2023-02-13T10:09:54.031Z,103046.53
2023-02-13T10:13:08.152Z,103048.06
2023-02-13T10:16:01.883Z,103045.22
2023-02-13T10:19:03.163Z,103037.63
2023-02-13T10:21:42.773Z,103040.72
2023-02-13T10:24:32.928Z,103043.56
2023-02-13T10:27:17.296Z,103036.94
2023-02-13T10:30:28.090Z,103033.84
2023-02-13T10:33:29.840Z,103044.50
2023-02-13T10:36:41.774Z,103036.16
2023-02-13T10:39:18.170Z,103028.91
2023-02-13T10:42:09.469Z,103028.63
2023-02-13T10:48:35.035Z,103032.66
2023-02-13T10:51:52.179Z,103024.69
2023-02-13T10:55:16.603Z,103022.09
2023-02-13T10:58:50.125Z,103024.56
2023-02-13T11:01:41.982Z,103026.00
2023-02-13T11:04:18.031Z,103025.03
2023-02-13T11:07:02.975Z,103025.53
2023-02-13T11:09:41.501Z,103021.53
2023-02-13T11:12:31.662Z,103023.09
2023-02-13T11:15:31.719Z,103022.06
2023-02-13T11:18:19.888Z,103011.31
2023-02-13T11:20:49.603Z,103017.94
2023-02-13T11:23:36.652Z,103028.44
2023-02-13T11:26:21.694Z,103032.84
2023-02-13T11:29:03.146Z,103025.09
2023-02-13T11:58:32.209Z,103003.91
2023-02-13T13:15:13.621Z,103013.66
2023-02-13T13:18:01.711Z,103016.03
2023-02-13T13:21:07.656Z,103010.72
2023-02-13T13:24:32.436Z,103010.97
2023-02-13T13:27:03.646Z,103009.25
2023-02-13T13:30:34.427Z,103010.16
2023-02-13T13:33:22.730Z,103008.50
2023-02-13T13:36:24.374Z,102999.66
2023-02-13T13:39:30.595Z,103013.25
2023-02-13T13:42:51.787Z,103010.00
2023-02-13T13:45:41.318Z,103011.53
2023-02-13T13:49:06.959Z,103013.50
2023-02-13T13:51:33.961Z,103008.28
2023-02-13T13:54:06.550Z,103006.69
2023-02-13T13:57:03.617Z,103012.06
2023-02-13T13:59:33.402Z,103011.84
2023-02-13T14:02:18.145Z,103008.44
2023-02-13T14:05:26.094Z,103006.78
2023-02-13T14:08:33.292Z,103001.72
2023-02-13T14:11:07.332Z,102997.00
2023-02-13T14:13:40.493Z,102984.44
2023-02-13T14:16:32.118Z,102986.50
2023-02-13T14:19:04.668Z,102986.13
2023-02-13T14:21:32.176Z,102990.41
2023-02-13T14:24:06.607Z,102988.16
2023-02-13T14:26:43.348Z,102983.06
2023-02-13T14:29:43.870Z,102987.34
2023-02-13T14:32:43.298Z,102981.94
2023-02-13T14:35:32.740Z,102980.38
2023-02-13T14:38:10.889Z,102971.47
2023-02-13T14:40:54.680Z,102969.72
2023-02-13T14:43:56.171Z,102965.53
2023-02-13T14:46:47.920Z,102963.06
2023-02-13T14:49:34.409Z,102970.84
2023-02-13T14:52:13.619Z,102964.16
2023-02-13T14:55:02.204Z,102964.16
2023-02-13T14:57:42.002Z,102959.06
2023-02-13T15:00:44.119Z,102967.44
2023-02-13T15:03:19.982Z,102953.06
2023-02-13T15:05:59.760Z,102947.69
2023-02-13T15:08:36.901Z,102958.28
2023-02-13T15:11:27.705Z,102955.75
2023-02-13T15:13:54.526Z,102953.94
2023-02-13T15:16:24.065Z,102950.53
2023-02-13T15:18:55.774Z,102947.13
2023-02-13T15:21:33.088Z,102944.44
2023-02-13T15:24:00.065Z,102944.44
2023-02-13T15:26:28.788Z,102943.78
2023-02-13T15:29:29.213Z,102954.50
2023-02-13T15:31:59.383Z,102944.88
2023-02-13T15:34:34.979Z,102945.72
2023-02-13T15:37:03.009Z,102949.38
2023-02-13T15:39:35.408Z,102952.09
2023-02-13T15:42:06.384Z,102947.78
2023-02-13T15:44:41.507Z,102943.59
2023-02-13T15:47:25.514Z,102950.03
2023-02-13T15:49:52.489Z,102947.50
2023-02-13T15:52:33.777Z,102942.19
2023-02-13T15:55:00.950Z,102943.28
2023-02-13T15:57:29.497Z,102932.63
2023-02-13T15:59:59.448Z,102930.09
2023-02-13T16:02:50.320Z,102933.91
2023-02-13T16:05:26.568Z,102943.75
2023-02-13T16:08:35.991Z,102933.38
2023-02-13T16:11:45.861Z,102934.41
2023-02-13T16:14:35.881Z,102939.00
2023-02-13T16:17:18.472Z,102937.59
2023-02-13T16:20:28.427Z,102935.88
2023-02-13T16:23:02.916Z,102929.72
2023-02-13T16:25:38.587Z,102931.75
2023-02-13T16:28:27.333Z,102931.84
2023-02-13T16:31:02.667Z,102927.50
2023-02-13T16:34:07.766Z,102931.19
2023-02-13T16:36:34.590Z,102924.13
2023-02-13T16:39:21.332Z,102925.09
2023-02-13T16:41:55.302Z,102920.75
2023-02-13T16:44:32.859Z,102927.03
2023-02-13T16:47:19.563Z,102927.03
2023-02-13T16:49:57.389Z,102922.75
2023-02-13T16:52:26.687Z,102928.91
2023-02-13T16:55:08.293Z,102928.78
2023-02-13T16:57:35.732Z,102932.50
2023-02-13T17:00:27.757Z,102929.84
2023-02-13T17:02:54.505Z,102939.75
2023-02-13T17:05:28.337Z,102937.19
2023-02-13T17:07:58.625Z,102940.03
2023-02-13T17:10:37.526Z,102931.19
2023-02-13T17:13:12.928Z,102924.06
2023-02-13T17:15:50.685Z,102941.03
2023-02-13T17:18:17.778Z,102934.78
2023-02-13T17:20:45.823Z,102940.22
2023-02-13T17:23:22.541Z,102946.38
2023-02-13T17:25:53.897Z,102943.69
2023-02-13T17:28:29.223Z,102938.47
2023-02-13T17:31:01.671Z,102943.75
2023-02-13T17:33:36.719Z,102954.47
2023-02-13T17:36:04.222Z,102948.50
2023-02-13T17:38:30.872Z,102964.56
2023-02-13T17:41:00.853Z,102955.78
2023-02-13T17:43:27.985Z,102954.09
2023-02-13T17:45:54.700Z,102945.16
2023-02-13T17:48:21.466Z,102953.25
2023-02-13T17:50:52.432Z,102958.66
2023-02-13T17:53:26.737Z,102950.69
2023-02-13T17:55:54.508Z,102952.44
2023-02-13T17:58:24.755Z,102954.25
2023-02-13T18:00:51.621Z,102952.44
2023-02-13T18:03:19.165Z,102954.25
2023-02-13T18:51:57.120Z,102963.09
2023-02-13T19:59:51.561Z,102968.56
2023-02-13T20:18:37.556Z,102979.31
2023-02-13T20:26:38.046Z,102984.81
2023-02-13T20:39:56.147Z,102994.59
2023-02-13T20:45:07.783Z,102987.66
2023-02-13T20:47:34.448Z,102991.38
2023-02-13T20:50:01.236Z,102993.25
2023-02-13T20:52:27.972Z,102988.91
2023-02-13T20:55:06.471Z,103000.47
2023-02-13T20:57:36.615Z,103004.94
2023-02-13T21:00:15.898Z,102999.59
2023-02-13T21:02:42.612Z,103002.38
2023-02-13T21:05:09.303Z,102999.00
2023-02-13T21:07:36.287Z,103008.78
2023-02-13T21:10:03.065Z,103007.91
2023-02-13T21:12:29.724Z,103005.22
2023-02-13T21:14:56.434Z,103014.94
2023-02-13T21:17:23.246Z,103023.06
2023-02-13T21:19:50.238Z,103007.03
2023-02-13T21:22:17.093Z,103011.63
2023-02-13T21:24:44.297Z,103017.91
2023-02-13T21:27:11.594Z,103006.53
2023-02-13T21:29:38.506Z,103010.19
2023-02-13T21:32:05.677Z,103019.00
2023-02-13T21:34:32.678Z,103026.09
2023-02-13T21:37:05.357Z,103024.47
2023-02-13T21:39:33.926Z,103022.78
2023-02-13T21:42:00.570Z,103021.97
2023-02-13T21:44:30.553Z,103021.09
2023-02-13T21:46:57.479Z,103020.28
2023-02-13T21:49:25.689Z,103030.97
2023-02-13T21:51:58.361Z,103028.34
2023-02-13T21:54:25.365Z,103027.53
2023-02-13T21:59:34.928Z,103021.22
2023-02-13T22:02:02.707Z,103026.72
2023-02-13T22:04:35.275Z,103023.13
2023-02-13T22:07:04.644Z,103020.50
2023-02-13T22:09:37.879Z,103025.84
2023-02-13T22:12:05.228Z,103023.19
2023-02-13T22:14:31.881Z,103030.22
2023-02-13T22:16:58.619Z,103027.50
2023-02-13T22:19:31.211Z,103024.06
2023-02-13T22:22:03.575Z,103025.63
2023-02-13T22:24:31.535Z,103033.66
2023-02-13T22:27:05.855Z,103022.09
2023-02-13T22:29:32.627Z,103024.66
2023-02-13T22:32:06.664Z,103020.16
2023-02-13T22:34:36.470Z,103016.63
2023-02-13T22:37:03.276Z,103028.19
2023-02-13T22:39:31.469Z,103037.09
2023-02-13T22:42:09.742Z,103032.72
2023-02-13T22:44:41.990Z,103027.50
2023-02-13T22:47:08.662Z,103032.84
2023-02-13T22:49:38.255Z,103037.25
2023-02-13T22:52:06.133Z,103032.84
2023-02-13T22:54:33.154Z,103039.22
2023-02-13T22:57:06.413Z,103036.63
2023-02-13T22:59:37.802Z,103037.50
2023-02-13T23:02:08.419Z,103032.88
2023-02-13T23:04:37.810Z,103027.50
2023-02-13T23:07:07.627Z,103015.13
2023-02-13T23:09:34.378Z,103027.50
2023-02-13T23:12:20.216Z,103030.34
2023-02-13T23:14:46.957Z,103022.38
2023-02-13T23:17:45.646Z,103022.44
2023-02-13T23:20:13.124Z,103019.03
2023-02-13T23:22:42.613Z,103019.88
2023-02-13T23:25:11.858Z,103015.34
2023-02-13T23:27:42.194Z,103017.09
2023-02-13T23:30:13.069Z,103016.03
2023-02-13T23:32:39.958Z,103018.47
2023-02-13T23:35:09.578Z,103013.09
2023-02-13T23:37:37.773Z,103010.50
2023-02-13T23:40:06.573Z,103022.16
2023-02-13T23:42:35.801Z,103017.03
2023-02-13T23:45:03.881Z,103022.63
2023-02-13T23:47:30.804Z,103014.69
2023-02-13T23:49:57.657Z,103019.94
2023-02-13T23:52:26.908Z,103027.88
2023-02-13T23:54:53.585Z,103020.72
2023-02-13T23:57:20.595Z,103022.44
2023-02-13T23:59:47.251Z,103019.00
